createdAt,value
2022-08-29T00:01:14.985Z,10.88
2022-08-29T00:06:17.133Z,11.07
2022-08-29T00:11:19.154Z,10.15
2022-08-29T00:16:21.101Z,10.97
2022-08-29T00:21:23.131Z,10.90
2022-08-29T00:26:24.849Z,10.80
2022-08-29T00:31:28.517Z,10.57
2022-08-29T00:36:30.634Z,9.20
2022-08-29T00:41:33.205Z,9.60
2022-08-29T00:46:47.440Z,10.23
2022-08-29T00:51:49.355Z,11.48
2022-08-29T00:56:51.398Z,11.65
2022-08-29T01:01:53.093Z,11.97
2022-08-29T01:06:54.983Z,10.60
2022-08-29T01:12:15.489Z,11.77
2022-08-29T01:17:28.116Z,12.18
2022-08-29T01:23:21.234Z,11.30
2022-08-29T01:28:26.092Z,10.55
2022-08-29T01:33:35.507Z,11.18
2022-08-29T01:38:38.920Z,10.15
2022-08-29T01:43:46.690Z,8.80
2022-08-29T01:48:48.705Z,9.60
2022-08-29T01:53:51.766Z,9.73
2022-08-29T02:03:56.061Z,10.33
2022-08-29T02:08:58.093Z,11.03
2022-08-29T02:14:00.053Z,12.17
2022-08-29T02:19:01.898Z,10.80
2022-08-29T02:24:23.883Z,11.80
2022-08-29T02:29:37.107Z,12.23
2022-08-29T02:34:43.280Z,11.85
2022-08-29T02:39:46.624Z,11.05
2022-08-29T02:44:48.316Z,12.75
2022-08-29T02:49:50.016Z,11.82
2022-08-29T02:54:51.734Z,11.15
2022-08-29T02:59:53.509Z,5.38
2022-08-29T03:04:55.257Z,8.40
2022-08-29T03:09:57.498Z,6.70
2022-08-29T03:14:59.226Z,7.90
2022-08-29T03:20:02.009Z,9.38
2022-08-29T03:25:04.858Z,9.93
2022-08-29T03:35:13.614Z,8.40
2022-08-29T03:40:18.041Z,6.15
2022-08-29T03:45:20.367Z,9.13
2022-08-29T03:50:23.294Z,6.90
2022-08-29T04:00:27.114Z,11.20
2022-08-29T04:05:29.037Z,12.00
2022-08-29T04:10:34.740Z,12.68
2022-08-29T04:15:40.180Z,13.32
2022-08-29T04:20:44.872Z,11.90
2022-08-29T04:25:46.669Z,13.68
2022-08-29T04:30:51.808Z,11.85
2022-08-29T04:35:54.519Z,9.88
2022-08-29T04:40:56.342Z,10.27
2022-08-29T04:45:58.284Z,12.50
2022-08-29T04:51:01.544Z,10.55
2022-08-29T04:56:07.344Z,9.93
2022-08-29T05:01:13.214Z,12.68
2022-08-29T05:06:17.162Z,11.23
2022-08-29T05:11:22.724Z,10.00
2022-08-29T05:16:25.029Z,12.35
2022-08-29T05:21:35.068Z,11.63
2022-08-29T05:26:44.678Z,17.85
2022-08-29T05:31:48.121Z,16.23
2022-08-29T05:36:50.007Z,17.42
2022-08-29T05:41:55.268Z,10.17
2022-08-29T05:46:57.041Z,23.98
2022-08-29T05:52:00.635Z,18.13
2022-08-29T05:57:02.765Z,25.88
2022-08-29T06:02:05.845Z,17.97
2022-08-29T06:07:08.708Z,23.08
2022-08-29T06:17:13.646Z,28.85
2022-08-29T06:22:16.535Z,28.92
2022-08-29T06:27:18.394Z,29.98
2022-08-29T06:32:20.086Z,17.43
2022-08-29T06:37:21.857Z,33.58
2022-08-29T06:42:25.107Z,26.97
2022-08-29T06:47:31.051Z,22.30
2022-08-29T06:52:32.715Z,24.05
2022-08-29T06:57:42.278Z,24.48
2022-08-29T07:02:47.557Z,22.70
2022-08-29T07:07:54.043Z,22.88
2022-08-29T07:12:56.056Z,20.87
2022-08-29T07:17:59.989Z,24.47
2022-08-29T07:23:01.938Z,23.45
2022-08-29T07:28:04.958Z,21.27
2022-08-29T07:33:07.076Z,19.90
2022-08-29T07:38:08.903Z,20.48
2022-08-29T07:43:11.332Z,17.23
2022-08-29T07:48:13.524Z,12.50
2022-08-29T07:53:15.743Z,12.90
2022-08-29T07:58:17.873Z,17.90
2022-08-29T08:03:21.690Z,14.20
2022-08-29T08:08:23.524Z,17.83
2022-08-29T08:13:25.338Z,14.93
2022-08-29T08:18:29.610Z,14.32
2022-08-29T08:23:31.574Z,15.93
2022-08-29T08:28:33.983Z,14.53
2022-08-29T08:33:40.861Z,18.67
2022-08-29T08:38:43.302Z,19.75
2022-08-29T08:43:54.034Z,21.05
2022-08-29T08:48:58.637Z,20.83
2022-08-29T08:54:03.516Z,22.40
2022-08-29T08:59:39.394Z,23.52
2022-08-29T09:04:47.339Z,22.13
2022-08-29T09:10:06.929Z,21.52
2022-08-29T09:15:18.949Z,22.38
2022-08-29T09:20:24.081Z,23.00
2022-08-29T09:25:28.356Z,21.25
2022-08-29T09:30:33.992Z,20.77
2022-08-29T09:35:42.210Z,20.33
2022-08-29T09:40:53.288Z,21.10
2022-08-29T09:46:23.333Z,18.88
2022-08-29T09:51:35.145Z,18.38
2022-08-29T09:56:49.228Z,16.98
2022-08-29T10:02:28.290Z,15.70
2022-08-29T10:07:46.108Z,15.40
2022-08-29T10:13:05.896Z,14.32
2022-08-29T10:18:24.670Z,15.00
2022-08-29T10:23:49.522Z,13.43
2022-08-29T10:29:03.011Z,12.63
2022-08-29T10:34:32.639Z,11.65
2022-08-29T10:39:54.006Z,10.52
2022-08-29T10:45:13.181Z,10.70
2022-08-29T10:50:58.533Z,9.63
2022-08-29T10:56:15.334Z,10.52
2022-08-29T11:01:23.869Z,10.75
2022-08-29T11:06:31.764Z,9.45
2022-08-29T11:11:36.433Z,9.70
2022-08-29T11:16:50.005Z,8.63
2022-08-29T11:22:06.497Z,7.50
2022-08-29T11:27:26.806Z,7.10
2022-08-29T11:32:51.801Z,7.40
2022-08-29T11:38:07.754Z,7.25
2022-08-29T11:43:14.209Z,7.43
2022-08-29T11:48:32.018Z,7.20
2022-08-29T11:53:34.017Z,5.88
2022-08-29T11:58:38.855Z,6.15
2022-08-29T12:03:45.252Z,6.30
2022-08-29T12:09:07.222Z,6.88
2022-08-29T12:14:29.292Z,5.82
2022-08-29T12:19:52.342Z,5.07
2022-08-29T12:24:57.212Z,5.80
2022-08-29T12:30:03.369Z,5.13
2022-08-29T12:35:17.631Z,5.28
2022-08-29T12:40:41.873Z,5.95
2022-08-29T12:45:47.029Z,5.40
2022-08-29T12:50:50.319Z,5.60
2022-08-29T12:56:01.795Z,5.22
2022-08-29T13:01:08.128Z,5.57
2022-08-29T13:06:13.768Z,5.32
2022-08-29T13:11:23.341Z,5.53
2022-08-29T13:16:29.546Z,5.90
2022-08-29T13:21:33.533Z,5.05
2022-08-29T13:26:38.050Z,4.68
2022-08-29T13:31:40.441Z,4.78
2022-08-29T13:36:59.013Z,4.88
2022-08-29T13:42:00.625Z,4.72
2022-08-29T13:47:12.515Z,4.20
2022-08-29T13:57:23.820Z,4.68
2022-08-29T14:02:26.027Z,4.78
2022-08-29T14:12:33.227Z,4.75
2022-08-29T14:17:36.513Z,5.07
2022-08-29T14:22:38.731Z,4.30
2022-08-29T14:27:41.718Z,4.50
2022-08-29T14:32:43.730Z,4.55
2022-08-29T14:37:45.743Z,4.70
2022-08-29T14:47:49.776Z,4.40
2022-08-29T14:52:51.952Z,4.13
2022-08-29T15:02:56.459Z,4.50
2022-08-29T15:08:00.758Z,4.50
2022-08-29T15:13:07.296Z,4.03
2022-08-29T15:18:20.310Z,4.20
2022-08-29T15:23:33.834Z,4.18
2022-08-29T15:28:35.828Z,4.53
2022-08-29T15:33:38.010Z,4.80
2022-08-29T15:43:41.808Z,5.27
2022-08-29T15:48:43.613Z,5.05
2022-08-29T15:53:45.506Z,5.28
2022-08-29T15:58:48.264Z,5.00
2022-08-29T16:03:50.023Z,4.50
2022-08-29T16:08:55.374Z,4.53
2022-08-29T16:14:34.576Z,4.28
2022-08-29T16:19:20.545Z,4.68
2022-08-29T16:24:24.036Z,4.50
2022-08-29T16:29:27.161Z,4.90
2022-08-29T16:34:29.387Z,4.80
2022-08-29T16:44:34.269Z,4.70
2022-08-29T16:49:36.063Z,5.10
2022-08-29T16:54:37.819Z,5.30
2022-08-29T16:59:39.570Z,5.20
2022-08-29T17:04:41.318Z,6.00
2022-08-29T17:09:43.022Z,5.70
2022-08-29T17:14:44.715Z,6.10
2022-08-29T17:19:49.404Z,6.55
2022-08-29T17:24:51.147Z,5.93
2022-08-29T17:29:53.341Z,6.43
2022-08-29T17:34:55.030Z,6.40
2022-08-29T17:39:56.887Z,6.50
2022-08-29T17:44:58.633Z,6.75
2022-08-29T17:50:00.361Z,6.87
2022-08-29T17:55:07.065Z,7.37
2022-08-29T18:00:09.866Z,7.00
2022-08-29T18:05:14.238Z,7.35
2022-08-29T18:10:16.925Z,7.80
2022-08-29T18:15:19.655Z,7.93
2022-08-29T18:20:23.173Z,7.20
2022-08-29T18:25:25.254Z,8.05
2022-08-29T18:30:27.687Z,8.40
2022-08-29T18:35:29.481Z,8.07
2022-08-29T18:40:31.400Z,8.10
2022-08-29T18:45:33.585Z,8.23
2022-08-29T18:50:36.448Z,8.18
2022-08-29T19:00:42.606Z,8.90
2022-08-29T19:05:48.383Z,8.38
2022-08-29T19:10:53.934Z,9.13
2022-08-29T19:15:58.429Z,9.18
2022-08-29T19:21:06.132Z,9.48
2022-08-29T19:26:28.408Z,8.95
2022-08-29T19:31:30.903Z,8.82
2022-08-29T19:36:33.611Z,9.07
2022-08-29T19:46:39.177Z,8.98
2022-08-29T19:51:41.974Z,8.80
2022-08-29T19:56:46.848Z,9.27
2022-08-29T20:01:48.899Z,7.80
2022-08-29T20:06:50.941Z,9.10
2022-08-29T20:11:53.227Z,9.00
2022-08-29T20:16:55.002Z,9.40
2022-08-29T20:21:56.881Z,9.63
2022-08-29T20:27:00.162Z,9.93
2022-08-29T20:32:02.170Z,9.43
2022-08-29T20:37:09.682Z,9.60
2022-08-29T20:42:12.245Z,9.20
2022-08-29T20:52:19.812Z,9.52
2022-08-29T20:57:21.615Z,10.32
2022-08-29T21:02:23.470Z,10.57
2022-08-29T21:07:25.911Z,10.07
2022-08-29T21:12:27.722Z,10.50
2022-08-29T21:17:29.634Z,9.47
2022-08-29T21:22:31.373Z,9.87
2022-08-29T21:27:33.040Z,11.20
2022-08-29T21:32:34.767Z,9.48
2022-08-29T21:37:36.470Z,8.77
2022-08-29T21:42:38.749Z,10.60
2022-08-29T21:47:40.638Z,9.63
2022-08-29T21:52:42.379Z,10.23
2022-08-29T21:57:59.230Z,10.87
2022-08-29T22:03:03.724Z,10.98
2022-08-29T22:08:06.020Z,10.40
2022-08-29T22:13:09.386Z,12.23
2022-08-29T22:18:14.801Z,11.65
2022-08-29T22:23:18.899Z,11.88
2022-08-29T22:28:22.501Z,12.13
2022-08-29T22:33:24.193Z,12.52
2022-08-29T22:38:25.982Z,12.15
2022-08-29T22:43:28.462Z,12.23
2022-08-29T22:48:30.262Z,12.18
2022-08-29T22:53:31.942Z,10.52
2022-08-29T22:58:36.296Z,11.35
2022-08-29T23:03:38.197Z,9.82
2022-08-29T23:08:39.885Z,11.55
2022-08-29T23:13:42.297Z,12.32
2022-08-29T23:18:44.101Z,12.30
2022-08-29T23:23:45.846Z,12.73
2022-08-29T23:28:48.742Z,12.48
2022-08-29T23:33:52.069Z,12.60
2022-08-29T23:38:53.725Z,11.23
2022-08-29T23:43:57.892Z,11.40
2022-08-29T23:48:59.781Z,12.70
2022-08-29T23:54:01.813Z,12.23
2022-08-29T23:59:03.575Z,9.93
